チェンナイ の空港の天気 - METARとTAF

チェンナイ国際空港 ( VOMM / MAA ) - インド チェンナイ
飛行場実況気象(Metar)
観測時間08/18 08:00 IST (08/18 02:30 UTC)
風向・風速西 4m/s
視程5000m
天気現象もや
全天の4割程度の雲 雲底高度 550m
全天を覆う雲 雲底高度 3050m
気温27℃
湿度89%
気圧1004hPa
METARVOMM 180230Z 28008KT 5000 BR SCT018 OVC100 27/25 Q1004 NOSIG
過去の天気等 Google飛行場航空写真 Wunderground天気予報

過去48時間のMETAR

飛行場予報(TAF)
発表時間: 8/18 04:30 IST (8/17 23:00 UTC)
予報対象時間: 18日5時 IST ~ 19日11時 IST
風向・風速西 5m/s
視程4,000m
18日8時 IST ~ 18日9時 IST に徐々に
視程6,000m
18日14時 IST ~ 18日15時 IST に徐々に
風向・風速東南東 5m/s
18日17時 IST ~ 18日23時 IST に一時的に
視程4,000m
18日20時 IST ~ 18日21時 IST に徐々に
風向・風速西 5m/s
TAF VOMM 172300Z 1800/1906 27010KT 4000 DZ/BR FEW018 BKN080
BECMG 1803/1804 6000
BECMG 1809/1810 12010KT
TEMPO 1812/1818 4000 -TSRA/RA SCT018 FEW025CB OVC080
BECMG 1815/1816 27010KT